Time;durP1;ratioP1;P1;durP2;ratioP2;P2;SDS_P1;SDS_P2;PMS_P1;PMS_P2;Temp;Humidity;BMP_temperature;BMP_pressure;BME280_temperature;BME280_humidity;BME280_pressure;Samples;Min_cycle;Max_cycle;Signal;HPM_P1;HPM_P2
2023/03/20 00:01:33;;;;;;;;;;;;;;;29.71;20.93;101254.75;5076837;28;1035;-34
2023/03/20 00:03:59;;;;;;;;;;;;;;;29.65;20.94;101253.63;5067650;28;1192;-36
2023/03/20 00:06:25;;;;;;;;;;;;;;;29.30;21.24;101240.59;5072810;28;1910;-34
2023/03/20 00:08:51;;;;;;;;;;;;;;;28.06;22.69;101239.69;5059651;28;1154;-37
2023/03/20 00:11:21;;;;;;;;;;;;;;;28.66;22.45;101244.56;5072606;28;1108;-33
2023/03/20 00:13:46;;;;;;;;;;;;;;;29.09;21.58;101231.31;5041735;28;1219;-33
2023/03/20 00:16:12;;;;;;;;;;;;;;;29.00;21.58;101234.28;5072230;28;1198;-34
2023/03/20 00:18:38;;;;;;;;;;;;;;;29.39;21.22;101232.38;5072228;28;1146;-38
2023/03/20 00:21:04;;;;;;;;;;;;;;;29.65;20.99;101231.06;5078619;28;1143;-33
2023/03/20 00:23:29;;;;;;;;;;;;;;;29.82;20.76;101227.13;5079286;28;1094;-34
2023/03/20 00:25:55;;;;;;;;;;;;;;;28.27;22.10;101221.97;5078189;28;1961;-34
2023/03/20 00:28:50;;;;;;;;;;;;;;;27.67;22.98;101231.41;5066104;28;860;-31
2023/03/20 00:31:23;;;;;;;;;;;;;;;29.18;21.55;101226.66;5037889;28;1143;-35
2023/03/20 00:33:51;;;;;;;;;;;;;;;29.28;21.39;101225.56;5060875;28;1163;-35
2023/03/20 00:36:17;;;;;;;;;;;;;;;29.33;21.24;101217.69;5078409;28;1032;-32
2023/03/20 00:38:42;;;;;;;;;;;;;;;29.34;21.34;101217.50;5065707;28;1106;-32
2023/03/20 00:41:19;;;;;;;;;;;;;;;29.56;21.04;101219.47;5049975;28;845;-33
2023/03/20 00:43:45;;;;;;;;;;;;;;;28.75;21.83;101218.25;5039055;28;1261;-33
2023/03/20 00:46:11;;;;;;;;;;;;;;;27.45;23.53;101222.16;5060371;28;1914;-36
2023/03/20 00:48:37;;;;;;;;;;;;;;;28.83;21.83;101213.59;5078485;28;1062;-36
2023/03/20 00:51:02;;;;;;;;;;;;;;;29.30;21.19;101205.38;5060565;28;1138;-32
2023/03/20 00:53:28;;;;;;;;;;;;;;;29.09;21.44;101215.06;5078552;28;998;-37
2023/03/20 00:55:53;;;;;;;;;;;;;;;29.50;21.21;101217.50;5077959;28;1119;-34
2023/03/20 00:58:18;;;;;;;;;;;;;;;29.63;20.98;101215.00;5059874;28;1090;-36
2023/03/20 01:00:44;;;;;;;;;;;;;;;29.84;20.72;101220.69;5060692;28;1238;-32
2023/03/20 01:03:19;;;;;;;;;;;;;;;28.59;21.84;101218.19;5060072;28;1130;-36
2023/03/20 01:05:46;;;;;;;;;;;;;;;27.62;23.18;101214.84;5064326;28;1918;-35
2023/03/20 01:08:12;;;;;;;;;;;;;;;29.22;21.33;101208.19;5071084;28;1204;-36
2023/03/20 01:10:37;;;;;;;;;;;;;;;29.28;21.42;101206.59;5069288;28;1222;-34
2023/03/20 01:13:03;;;;;;;;;;;;;;;29.32;21.27;101205.19;5077671;28;1202;-34
2023/03/20 01:15:30;;;;;;;;;;;;;;;29.11;21.38;101201.38;5058222;28;1242;-33
2023/03/20 01:17:55;;;;;;;;;;;;;;;29.69;20.87;101202.56;5039998;28;1207;-35
2023/03/20 01:20:22;;;;;;;;;;;;;;;29.67;21.03;101204.63;5069223;28;1199;-30
2023/03/20 01:22:48;;;;;;;;;;;;;;;28.03;22.86;101200.31;5059798;28;1304;-31
2023/03/20 01:25:14;;;;;;;;;;;;;;;28.57;22.29;101192.34;5074961;28;1975;-36
2023/03/20 01:27:41;;;;;;;;;;;;;;;29.26;21.36;101197.81;5076554;28;1130;-39
2023/03/20 01:30:15;;;;;;;;;;;;;;;29.32;21.57;101202.47;5059788;28;1227;-34
2023/03/20 01:32:42;;;;;;;;;;;;;;;29.40;21.15;101191.53;5060206;28;1099;-34
2023/03/20 01:35:11;;;;;;;;;;;;;;;29.65;21.09;101191.25;5047016;28;1035;-38
2023/03/20 01:37:36;;;;;;;;;;;;;;;29.78;20.94;101190.56;5059423;28;1199;-39
2023/03/20 01:40:02;;;;;;;;;;;;;;;28.81;21.88;101183.16;5058492;28;1275;-35
2023/03/20 01:42:31;;;;;;;;;;;;;;;27.52;23.40;101185.34;5031409;28;1313;-35
2023/03/20 01:44:57;;;;;;;;;;;;;;;28.67;22.04;101182.13;5059550;28;1961;-31
2023/03/20 01:47:23;;;;;;;;;;;;;;;29.56;21.10;101182.34;5066032;28;1230;-35
2023/03/20 01:50:09;;;;;;;;;;;;;;;29.07;21.46;101178.38;5059410;28;1122;-35
2023/03/20 01:52:35;;;;;;;;;;;;;;;29.18;21.64;101183.31;5059172;28;1206;-36
2023/03/20 01:55:02;;;;;;;;;;;;;;;28.97;21.66;101173.22;5045483;28;2099;-32
2023/03/20 01:57:28;;;;;;;;;;;;;;;29.32;21.12;101170.81;5058632;28;1637;-35
2023/03/20 02:00:05;;;;;;;;;;;;;;;27.85;22.70;101173.56;5059385;28;1323;-34
2023/03/20 02:02:40;;;;;;;;;;;;;;;28.39;22.45;101173.72;5064243;28;1251;-36
2023/03/20 02:05:07;;;;;;;;;;;;;;;28.93;21.77;101177.28;5052022;28;1902;-33
2023/03/20 02:07:34;;;;;;;;;;;;;;;28.93;21.81;101177.28;5028569;28;1098;-35
2023/03/20 02:10:04;;;;;;;;;;;;;;;28.94;21.88;101179.00;5058326;28;1230;-35
2023/03/20 02:12:43;;;;;;;;;;;;;;;29.00;21.50;101172.00;5044161;28;1329;-39
2023/03/20 02:15:11;;;;;;;;;;;;;;;29.51;21.17;101165.81;5059032;28;1151;-35
2023/03/20 02:17:50;;;;;;;;;;;;;;;28.24;22.46;101161.78;5050197;28;1218;-38
2023/03/20 02:20:16;;;;;;;;;;;;;;;27.49;23.39;101166.78;5068477;28;1169;-35
2023/03/20 02:23:00;;;;;;;;;;;;;;;29.21;21.48;101166.69;5076764;28;1075;-36
2023/03/20 02:25:50;;;;;;;;;;;;;;;29.65;21.13;101168.72;5057793;28;1882;-38
2023/03/20 02:28:26;;;;;;;;;;;;;;;27.99;22.49;101158.44;5042359;28;1144;-35
2023/03/20 02:30:58;;;;;;;;;;;;;;;27.93;23.04;101154.56;5058627;28;1215;-34
2023/03/20 02:33:37;;;;;;;;;;;;;;;28.76;22.16;101158.50;5058603;28;1162;-34
2023/03/20 02:36:09;;;;;;;;;;;;;;;28.98;21.92;101155.13;5042255;28;1114;-37
2023/03/20 02:38:54;;;;;;;;;;;;;;;29.25;21.28;101150.06;5076261;28;1143;-34
2023/03/20 02:41:22;;;;;;;;;;;;;;;29.24;21.13;101153.81;5075650;28;1134;-35
2023/03/20 02:43:51;;;;;;;;;;;;;;;29.07;21.13;101152.13;5039577;28;1150;-33
2023/03/20 02:46:29;;;;;;;;;;;;;;;29.10;21.29;101148.19;5051207;28;1977;-32
2023/03/20 02:48:55;;;;;;;;;;;;;;;28.07;22.37;101150.28;5026007;28;1219;-35
2023/03/20 02:51:23;;;;;;;;;;;;;;;27.24;23.00;101150.66;5052510;28;1147;-32
2023/03/20 02:53:51;;;;;;;;;;;;;;;29.14;21.51;101148.66;5041461;28;1222;-31
2023/03/20 02:56:22;;;;;;;;;;;;;;;29.50;20.71;101145.16;5058097;28;1404;-35
2023/03/20 02:58:49;;;;;;;;;;;;;;;29.48;20.80;101136.38;5076501;28;1135;-34
2023/03/20 03:01:16;;;;;;;;;;;;;;;29.31;21.12;101138.47;5069482;28;1318;-30
2023/03/20 03:03:55;;;;;;;;;;;;;;;29.19;21.15;101130.84;5045400;28;1254;-33
2023/03/20 03:06:30;;;;;;;;;;;;;;;29.43;21.08;101128.81;5029869;28;1910;-32
2023/03/20 03:09:01;;;;;;;;;;;;;;;29.67;20.92;101129.56;5076181;28;1098;-38
2023/03/20 03:11:26;;;;;;;;;;;;;;;28.19;22.46;101139.88;5052755;28;1146;-35
2023/03/20 03:13:52;;;;;;;;;;;;;;;28.03;22.93;101123.78;5035073;28;1157;-33
2023/03/20 03:16:23;;;;;;;;;;;;;;;29.11;21.32;101122.81;5057491;28;1086;-35
2023/03/20 03:18:49;;;;;;;;;;;;;;;28.96;21.71;101118.19;5043940;28;1235;-35
2023/03/20 03:21:15;;;;;;;;;;;;;;;29.41;20.92;101124.63;5058686;28;1124;-34
2023/03/20 03:23:45;;;;;;;;;;;;;;;29.33;21.16;101136.41;5045359;28;1526;-34
2023/03/20 03:26:17;;;;;;;;;;;;;;;29.28;21.29;101125.31;5041938;28;1906;-34
2023/03/20 03:28:43;;;;;;;;;;;;;;;28.46;22.13;101123.28;5045766;28;1170;-30
2023/03/20 03:31:11;;;;;;;;;;;;;;;27.82;22.67;101130.66;5061519;28;1063;-39
2023/03/20 03:33:37;;;;;;;;;;;;;;;28.88;21.44;101125.56;5061724;28;1028;-34
2023/03/20 03:36:13;;;;;;;;;;;;;;;29.00;21.42;101125.97;5062048;28;1155;-36
2023/03/20 03:38:44;;;;;;;;;;;;;;;29.12;21.38;101134.47;5045455;28;1974;-32
2023/03/20 03:41:10;;;;;;;;;;;;;;;29.18;21.29;101137.25;5041209;28;1213;-34
2023/03/20 03:43:46;;;;;;;;;;;;;;;29.24;21.34;101143.81;5058507;28;1123;-32
2023/03/20 03:46:44;;;;;;;;;;;;;;;29.62;20.92;101145.56;5061723;28;1968;-32
2023/03/20 03:49:11;;;;;;;;;;;;;;;27.81;23.20;101142.50;5000820;28;1594;-35
2023/03/20 03:51:37;;;;;;;;;;;;;;;28.67;22.07;101140.66;5029169;28;1199;-34
2023/03/20 03:54:08;;;;;;;;;;;;;;;29.01;21.72;101133.09;5042070;28;1355;-32
2023/03/20 03:56:34;;;;;;;;;;;;;;;28.91;21.71;101136.03;5044914;28;1210;-35
2023/03/20 03:59:00;;;;;;;;;;;;;;;28.71;21.81;101137.41;5061080;28;1390;-40
2023/03/20 04:01:26;;;;;;;;;;;;;;;27.38;21.99;101146.38;5055825;28;1377;-39
2023/03/20 04:03:53;;;;;;;;;;;;;;;26.08;22.19;101144.31;5051741;28;1120;-38
2023/03/20 04:06:18;;;;;;;;;;;;;;;24.81;23.58;101135.81;5060917;28;1909;-39
2023/03/20 04:08:44;;;;;;;;;;;;;;;24.75;23.64;101132.91;5053911;28;1220;-34
2023/03/20 04:11:16;;;;;;;;;;;;;;;24.40;24.04;101125.63;5060794;28;1865;-37
2023/03/20 04:13:42;;;;;;;;;;;;;;;23.72;24.70;101131.31;5060931;28;965;-38
2023/03/20 04:16:12;;;;;;;;;;;;;;;23.28;25.21;101133.75;5061459;28;1242;-38
2023/03/20 04:18:38;;;;;;;;;;;;;;;23.03;25.62;101136.09;5078519;28;913;-36
2023/03/20 04:21:03;;;;;;;;;;;;;;;22.85;25.96;101134.19;5078876;28;1086;-37
2023/03/20 04:23:29;;;;;;;;;;;;;;;22.36;26.71;101135.91;5060826;28;1185;-37
2023/03/20 04:25:54;;;;;;;;;;;;;;;21.04;28.49;101143.84;5077735;28;1972;-39
2023/03/20 04:28:20;;;;;;;;;;;;;;;20.77;29.06;101141.69;5061002;28;1378;-38
2023/03/20 04:30:53;;;;;;;;;;;;;;;21.63;27.67;101137.03;5060682;28;1153;-40
2023/03/20 04:33:31;;;;;;;;;;;;;;;;;;5059450;28;1153;-38
2023/03/20 04:36:02;;;;;;;;;;;;;;;20.86;28.84;101132.88;5052039;28;1331;-39
2023/03/20 04:38:27;;;;;;;;;;;;;;;21.45;28.23;101137.69;5056038;28;1309;-37
2023/03/20 04:40:54;;;;;;;;;;;;;;;21.27;28.74;101143.66;5052646;28;1154;-35
2023/03/20 04:43:19;;;;;;;;;;;;;;;21.44;28.37;101149.38;5054323;28;1384;-35
2023/03/20 04:45:45;;;;;;;;;;;;;;;21.39;28.49;101148.91;5076872;28;1917;-32
2023/03/20 04:48:11;;;;;;;;;;;;;;;21.48;28.18;101145.44;5057167;28;1235;-35
2023/03/20 04:50:37;;;;;;;;;;;;;;;20.76;29.32;101145.31;5052527;28;1233;-39
2023/03/20 04:53:03;;;;;;;;;;;;;;;22.32;28.01;101149.72;5055093;28;1262;-36
2023/03/20 04:55:29;;;;;;;;;;;;;;;24.21;25.29;101148.13;5059758;28;1352;-39
2023/03/20 04:57:54;;;;;;;;;;;;;;;24.98;24.18;101146.72;5078312;28;1182;-36
2023/03/20 05:00:20;;;;;;;;;;;;;;;25.22;24.00;101147.03;5060667;28;1116;-38
2023/03/20 05:02:46;;;;;;;;;;;;;;;25.37;23.40;101156.19;5059613;28;1230;-35
2023/03/20 05:05:13;;;;;;;;;;;;;;;25.59;23.16;101158.47;5059512;28;1922;-34
2023/03/20 05:07:39;;;;;;;;;;;;;;;25.92;22.46;101147.81;5046468;28;1318;-35
2023/03/20 05:10:10;;;;;;;;;;;;;;;26.22;22.08;101161.69;5059821;28;1048;-36
2023/03/20 05:12:44;;;;;;;;;;;;;;;26.79;21.53;101159.19;5060121;28;1143;-37
2023/03/20 05:15:10;;;;;;;;;;;;;;;26.80;21.43;101160.84;5077540;28;1004;-35
2023/03/20 05:17:48;;;;;;;;;;;;;;;27.17;21.32;101165.88;5053963;28;1135;-34
2023/03/20 05:20:37;;;;;;;;;;;;;;;27.55;20.86;101176.88;5031188;28;1121;-37
2023/03/20 05:23:23;;;;;;;;;;;;;;;28.06;20.22;101163.97;5017042;28;1263;-37
2023/03/20 05:26:02;;;;;;;;;;;;;;;27.98;20.32;101163.00;5076569;28;1957;-33
2023/03/20 05:28:28;;;;;;;;;;;;;;;27.94;20.47;101164.38;5078372;28;975;-33
2023/03/20 05:31:12;;;;;;;;;;;;;;;28.13;19.88;101169.50;5077147;28;872;-34
2023/03/20 05:34:01;;;;;;;;;;;;;;;25.07;23.42;101158.41;5059783;28;1138;-33
2023/03/20 05:36:50;;;;;;;;;;;;;;;26.94;21.71;101144.97;5066504;28;1122;-34
2023/03/20 05:39:28;;;;;;;;;;;;;;;27.41;21.29;101153.31;5059138;28;1441;-37
2023/03/20 05:42:13;;;;;;;;;;;;;;;27.64;20.81;101153.38;5077157;28;1003;-34
2023/03/20 05:44:48;;;;;;;;;;;;;;;27.13;21.65;101154.56;5075867;28;1906;-35
2023/03/20 05:47:39;;;;;;;;;;;;;;;27.34;21.19;101156.69;5076607;28;1170;-36
2023/03/20 05:50:22;;;;;;;;;;;;;;;27.57;20.82;101164.03;5059277;28;1533;-36
2023/03/20 05:52:58;;;;;;;;;;;;;;;27.84;20.70;101155.66;5059357;28;2173;-33
2023/03/20 05:55:46;;;;;;;;;;;;;;;27.95;20.56;101157.94;5075771;28;1237;-37
2023/03/20 05:58:24;;;;;;;;;;;;;;;28.23;19.86;101151.16;5077387;28;1020;-35
2023/03/20 06:01:01;;;;;;;;;;;;;;;28.31;19.97;101161.91;5045906;28;1130;-33
2023/03/20 06:03:53;;;;;;;;;;;;;;;28.27;19.83;101166.00;5058976;28;1351;-33
2023/03/20 06:06:40;;;;;;;;;;;;;;;28.11;19.96;101164.28;5058836;28;1966;-31
2023/03/20 06:09:06;;;;;;;;;;;;;;;27.53;20.43;101172.69;5058813;28;1102;-38
2023/03/20 06:11:32;;;;;;;;;;;;;;;25.44;23.13;101159.91;5059225;28;1301;-32
2023/03/20 06:13:58;;;;;;;;;;;;;;;26.83;21.52;101163.22;5058963;28;1209;-33
2023/03/20 06:16:31;;;;;;;;;;;;;;;28.18;20.46;101162.53;5058336;28;2090;-35
2023/03/20 06:18:58;;;;;;;;;;;;;;;28.58;19.82;101170.53;5058600;28;1233;-35
2023/03/20 06:21:24;;;;;;;;;;;;;;;28.60;20.02;101168.47;5058983;28;1446;-38
2023/03/20 06:23:50;;;;;;;;;;;;;;;28.42;20.52;101165.25;5058600;28;1230;-32
2023/03/20 06:26:16;;;;;;;;;;;;;;;29.00;19.98;101162.03;5058440;28;1902;-34
2023/03/20 06:29:02;;;;;;;;;;;;;;;29.18;19.83;101171.63;5058623;28;1206;-38
2023/03/20 06:31:27;;;;;;;;;;;;;;;29.06;19.87;101163.16;5058314;28;1399;-30
2023/03/20 06:33:53;;;;;;;;;;;;;;;29.34;19.86;101165.19;5058566;28;1411;-37
2023/03/20 06:36:18;;;;;;;;;;;;;;;29.58;19.54;101163.19;5076542;28;1075;-37
2023/03/20 06:38:44;;;;;;;;;;;;;;;29.43;19.51;101164.06;5058189;28;1163;-37
2023/03/20 06:41:14;;;;;;;;;;;;;;;26.16;23.00;101168.56;5058535;28;1272;-38
2023/03/20 06:43:41;;;;;;;;;;;;;;;25.47;24.45;101166.00;5058106;28;1219;-25
2023/03/20 06:46:08;;;;;;;;;;;;;;;27.33;22.37;101164.97;5058223;28;1969;-25
2023/03/20 06:48:34;;;;;;;;;;;;;;;28.04;21.65;101168.72;5057754;28;1501;-26
2023/03/20 06:51:03;;;;;;;;;;;;;;;28.42;21.18;101168.81;5058452;28;1130;-25
2023/03/20 06:53:35;;;;;;;;;;;;;;;28.63;20.88;101169.16;5045025;28;1426;-27
2023/03/20 06:56:07;;;;;;;;;;;;;;;28.31;20.71;101177.31;5057779;28;1279;-25
2023/03/20 06:58:33;;;;;;;;;;;;;;;29.01;20.22;101179.13;5076110;28;1056;-28
2023/03/20 07:00:59;;;;;;;;;;;;;;;29.21;19.94;101182.94;5057862;28;1195;-25
2023/03/20 07:03:24;;;;;;;;;;;;;;;27.10;22.25;101174.66;5058143;28;1051;-25
2023/03/20 07:05:50;;;;;;;;;;;;;;;26.59;23.21;101182.97;5057580;28;2182;-22
2023/03/20 07:08:18;;;;;;;;;;;;;;;28.86;20.74;101179.94;5049451;28;1013;-22
2023/03/20 07:10:44;;;;;;;;;;;;;;;29.44;19.94;101187.44;5071677;28;1261;-23
2023/03/20 07:13:11;;;;;;;;;;;;;;;28.22;21.00;101188.19;5058341;28;1253;-21
2023/03/20 07:15:38;;;;;;;;;;;;;;;26.42;23.18;101185.66;5057947;28;1214;-22
2023/03/20 07:18:06;;;;;;;;;;;;;;;28.13;21.45;101178.44;5057527;28;1561;-21
2023/03/20 07:20:32;;;;;;;;;;;;;;;29.01;20.57;101192.66;5044715;28;1379;-22
2023/03/20 07:22:58;;;;;;;;;;;;;;;28.95;20.63;101184.22;5058258;28;1187;-21
2023/03/20 07:25:25;;;;;;;;;;;;;;;29.27;20.46;101186.78;5058170;28;1910;-22
2023/03/20 07:27:51;;;;;;;;;;;;;;;29.42;20.17;101185.94;5058429;28;1225;-23
2023/03/20 07:30:20;;;;;;;;;;;;;;;29.43;20.14;101180.31;5057459;28;1172;-23
2023/03/20 07:32:47;;;;;;;;;;;;;;;29.42;20.17;101180.50;5058687;28;1325;-23
2023/03/20 07:35:14;;;;;;;;;;;;;;;27.31;22.85;101180.53;5057820;28;1146;-21
2023/03/20 07:37:41;;;;;;;;;;;;;;;28.36;21.50;101175.78;5058003;28;1165;-22
2023/03/20 07:40:07;;;;;;;;;;;;;;;29.36;20.37;101183.97;5075747;28;1130;-23
2023/03/20 07:42:51;;;;;;;;;;;;;;;29.49;20.29;101175.19;5057493;28;1303;-21
2023/03/20 07:45:35;;;;;;;;;;;;;;;29.31;20.60;101171.81;5075510;28;1902;-22
2023/03/20 07:48:00;;;;;;;;;;;;;;;29.60;20.24;101184.72;5057911;28;1204;-29
2023/03/20 07:50:26;;;;;;;;;;;;;;;29.84;19.97;101185.41;5075843;28;1047;-28
2023/03/20 07:52:52;;;;;;;;;;;;;;;27.70;22.42;101176.16;5075645;28;1068;-29
2023/03/20 07:55:19;;;;;;;;;;;;;;;27.84;22.42;101180.00;5057846;28;1350;-30
2023/03/20 07:57:46;;;;;;;;;;;;;;;29.42;20.64;101173.22;5057934;28;1173;-19
2023/03/20 08:00:12;;;;;;;;;;;;;;;29.92;20.19;101172.59;5057621;28;1161;-27
2023/03/20 08:02:38;;;;;;;;;;;;;;;28.52;21.53;101173.97;5075669;28;1206;-22
2023/03/20 08:05:03;;;;;;;;;;;;;;;27.18;23.58;101175.66;5075545;28;1961;-29
2023/03/20 08:07:29;;;;;;;;;;;;;;;28.83;21.72;101174.84;5075528;28;1345;-26
2023/03/20 08:09:54;;;;;;;;;;;;;;;29.51;20.85;101181.25;5078962;28;1079;-25
2023/03/20 08:12:20;;;;;;;;;;;;;;;29.84;20.59;101180.00;5078205;28;1138;-27
2023/03/20 08:14:46;;;;;;;;;;;;;;;30.10;20.03;101184.00;5079915;28;1186;-25
2023/03/20 08:17:11;;;;;;;;;;;;;;;30.05;20.18;101182.75;5075526;28;1133;-25
2023/03/20 08:19:37;;;;;;;;;;;;;;;29.80;20.44;101180.38;5078558;28;1301;-25
2023/03/20 08:22:02;;;;;;;;;;;;;;;29.16;20.88;101177.25;5072864;28;1234;-26
2023/03/20 08:24:28;;;;;;;;;;;;;;;27.67;23.33;101179.19;5076753;28;1286;-26
2023/03/20 08:26:54;;;;;;;;;;;;;;;29.01;21.46;101182.66;5081636;28;1910;-25
2023/03/20 08:29:20;;;;;;;;;;;;;;;30.06;20.21;101183.59;5078792;28;1110;-24
2023/03/20 08:31:45;;;;;;;;;;;;;;;27.91;22.28;101174.72;5078355;28;1097;-26
2023/03/20 08:34:11;;;;;;;;;;;;;;;26.46;24.61;101175.41;5071074;28;1023;-25
2023/03/20 08:36:38;;;;;;;;;;;;;;;28.33;22.42;101178.00;5075431;28;1060;-28
2023/03/20 08:39:04;;;;;;;;;;;;;;;29.32;20.84;101184.34;5078700;28;1308;-27
2023/03/20 08:41:30;;;;;;;;;;;;;;;28.72;20.88;101192.41;5078398;28;1031;-25
2023/03/20 08:43:55;;;;;;;;;;;;;;;28.70;20.79;101186.31;5075875;28;1052;-24
2023/03/20 08:46:21;;;;;;;;;;;;;;;28.83;21.22;101189.25;5068050;28;1906;-23
2023/03/20 08:48:46;;;;;;;;;;;;;;;29.17;23.09;101188.94;5078029;28;1102;-23
2023/03/20 08:51:12;;;;;;;;;;;;;;;28.98;24.92;101180.31;5078295;28;1143;-28
2023/03/20 08:53:37;;;;;;;;;;;;;;;28.88;24.88;101177.03;5065900;28;1126;-28
2023/03/20 08:56:03;;;;;;;;;;;;;;;28.84;24.62;101180.06;5078086;28;1285;-23
2023/03/20 08:58:29;;;;;;;;;;;;;;;28.67;23.57;101159.63;5078393;28;1109;-27
2023/03/20 09:00:55;;;;;;;;;;;;;;;28.43;23.03;101177.75;5078558;28;1063;-26
2023/03/20 09:03:20;;;;;;;;;;;;;;;28.37;22.69;101182.03;5077265;28;1055;-25
2023/03/20 09:05:46;;;;;;;;;;;;;;;25.98;24.41;101175.94;5078006;28;1965;-24
2023/03/20 09:08:11;;;;;;;;;;;;;;;25.90;24.87;101174.09;5084333;28;923;-25
2023/03/20 09:10:37;;;;;;;;;;;;;;;28.85;21.27;101172.81;5098793;28;1146;-24
2023/03/20 09:13:03;;;;;;;;;;;;;;;28.39;21.83;101165.63;5077842;28;1146;-23
2023/03/20 09:15:28;;;;;;;;;;;;;;;28.43;21.72;101161.50;5077901;28;1050;-25
2023/03/20 09:17:54;;;;;;;;;;;;;;;28.67;21.14;101159.63;5078490;28;1155;-24
2023/03/20 09:20:19;;;;;;;;;;;;;;;28.59;21.21;101161.38;5077566;28;1209;-24
2023/03/20 09:22:45;;;;;;;;;;;;;;;28.44;20.88;101155.09;5077414;28;1122;-27
2023/03/20 09:25:11;;;;;;;;;;;;;;;29.09;20.48;101160.06;5064424;28;1906;-22
2023/03/20 09:27:37;;;;;;;;;;;;;;;29.39;19.66;101160.06;5077937;28;1114;-22
2023/03/20 09:30:03;;;;;;;;;;;;;;;29.00;20.05;101158.47;5077921;28;1447;-25
2023/03/20 09:32:28;;;;;;;;;;;;;;;29.62;19.61;101159.13;5077480;28;901;-24
2023/03/20 09:34:54;;;;;;;;;;;;;;;29.47;19.60;101153.69;5064120;28;1003;-22
2023/03/20 09:37:19;;;;;;;;;;;;;;;29.33;19.46;101149.94;5076617;28;1087;-23
2023/03/20 09:39:45;;;;;;;;;;;;;;;26.11;22.71;101143.97;5077467;28;1121;-23
2023/03/20 09:42:26;;;;;;;;;;;;;;;27.70;21.63;101139.19;5077623;28;1188;-24
2023/03/20 09:44:58;;;;;;;;;;;;;;;29.05;19.76;101150.63;5073947;28;1906;-24
2023/03/20 09:47:29;;;;;;;;;;;;;;;29.23;19.63;101144.00;5077723;28;1447;-20
2023/03/20 09:49:55;;;;;;;;;;;;;;;29.95;19.10;101141.53;5059568;28;1098;-42
2023/03/20 09:52:26;;;;;;;;;;;;;;;30.22;18.96;101140.97;5077588;28;1051;-40
2023/03/20 09:55:17;;;;;;;;;;;;;;;29.48;19.82;101128.25;5059548;28;1199;-39
2023/03/20 09:57:47;;;;;;;;;;;;;;;27.33;22.27;101129.84;5072500;28;1212;-41
2023/03/20 10:00:15;;;;;;;;;;;;;;;27.06;22.87;101123.91;5077511;28;1174;-41
2023/03/20 10:02:49;;;;;;;;;;;;;;;27.02;23.16;101126.09;5077422;28;1121;-38
2023/03/20 10:05:19;;;;;;;;;;;;;;;27.82;22.38;101115.28;5076814;28;1906;-41
2023/03/20 10:07:44;;;;;;;;;;;;;;;27.54;22.73;101112.22;5076738;28;1018;-40
2023/03/20 10:10:13;;;;;;;;;;;;;;;27.86;22.61;101105.78;5076634;28;1067;-38
2023/03/20 10:12:39;;;;;;;;;;;;;;;28.90;20.87;101107.25;5058927;28;1114;-41
2023/03/20 10:15:16;;;;;;;;;;;;;;;27.55;22.49;101106.63;5076635;28;1094;-39
2023/03/20 10:17:45;;;;;;;;;;;;;;;28.01;22.21;101106.88;5077055;28;1051;-38
2023/03/20 10:20:10;;;;;;;;;;;;;;;29.55;20.55;101101.22;5088250;28;1284;-38
2023/03/20 10:22:59;;;;;;;;;;;;;;;30.00;19.93;101103.81;5081684;28;1090;-39
2023/03/20 10:25:27;;;;;;;;;;;;;;;29.31;20.61;101100.56;5070293;28;1918;-39
2023/03/20 10:28:13;;;;;;;;;;;;;;;27.79;22.58;101102.13;5069668;28;946;-39
2023/03/20 10:30:41;;;;;;;;;;;;;;;28.46;21.90;101099.75;5087440;28;1564;-38
2023/03/20 10:33:29;;;;;;;;;;;;;;;27.62;22.99;101096.81;5083368;28;1217;-40
2023/03/20 10:36:00;;;;;;;;;;;;;;;27.35;23.43;101093.56;5089124;28;1046;-38
2023/03/20 10:38:31;;;;;;;;;;;;;;;29.06;21.21;101098.97;5083911;28;1252;-40
2023/03/20 10:40:57;;;;;;;;;;;;;;;28.10;22.19;101094.97;5069044;28;1289;-40
2023/03/20 10:43:33;;;;;;;;;;;;;;;27.95;22.57;101100.31;5055978;28;1139;-40
2023/03/20 10:46:08;;;;;;;;;;;;;;;29.46;21.01;101098.63;5076155;28;1982;-39
2023/03/20 10:48:35;;;;;;;;;;;;;;;30.08;20.26;101097.41;5064976;28;1047;-39
2023/03/20 10:51:01;;;;;;;;;;;;;;;30.59;19.90;101091.97;5064524;28;1076;-40
2023/03/20 10:53:35;;;;;;;;;;;;;;;28.38;22.32;101086.28;5083377;28;1221;-41
2023/03/20 10:56:02;;;;;;;;;;;;;;;28.31;22.42;101078.03;5069561;28;1181;-38
2023/03/20 10:58:28;;;;;;;;;;;;;;;28.53;22.07;101072.78;5057905;28;1051;-40
2023/03/20 11:00:54;;;;;;;;;;;;;;;28.13;22.69;101069.44;5040770;28;1199;-42
2023/03/20 11:03:24;;;;;;;;;;;;;;;28.15;22.69;101065.50;5058512;28;1262;-36
2023/03/20 11:06:00;;;;;;;;;;;;;;;29.88;20.64;101065.50;5062525;28;1914;-39
2023/03/20 11:08:29;;;;;;;;;;;;;;;30.30;20.15;101072.97;5075786;28;1135;-34
2023/03/20 11:10:59;;;;;;;;;;;;;;;27.77;22.31;101050.09;5058383;28;1143;-33
2023/03/20 11:13:25;;;;;;;;;;;;;;;26.55;23.39;101069.16;5076095;28;1102;-33
2023/03/20 11:15:51;;;;;;;;;;;;;;;28.67;21.72;101071.13;5075955;28;1202;-33
2023/03/20 11:18:16;;;;;;;;;;;;;;;28.85;21.00;101064.50;5076050;28;1135;-32
2023/03/20 11:20:46;;;;;;;;;;;;;;;29.27;20.13;101064.88;5075825;28;1015;-36
2023/03/20 11:23:38;;;;;;;;;;;;;;;29.33;20.50;101060.53;5076528;28;1186;-32
2023/03/20 11:26:05;;;;;;;;;;;;;;;28.23;21.01;101051.91;5071812;28;1979;-34
2023/03/20 11:28:37;;;;;;;;;;;;;;;26.53;23.44;101049.59;5056631;28;1012;-34
2023/03/20 11:31:07;;;;;;;;;;;;;;;26.35;22.95;101056.03;5074757;28;1015;-32
2023/03/20 11:33:35;;;;;;;;;;;;;;;25.81;24.10;101046.56;5074662;28;1116;-34
2023/03/20 11:36:01;;;;;;;;;;;;;;;24.63;25.73;101047.09;5057357;28;1171;-34
2023/03/20 11:38:27;;;;;;;;;;;;;;;26.97;22.42;101051.00;5075588;28;1184;-31
2023/03/20 11:40:52;;;;;;;;;;;;;;;26.98;22.93;101039.16;5058030;28;1287;-32
2023/03/20 11:43:21;;;;;;;;;;;;;;;26.28;22.97;101042.34;5045341;28;1506;-32
2023/03/20 11:45:53;;;;;;;;;;;;;;;27.37;22.55;101031.25;5068747;28;1909;-40
2023/03/20 11:48:19;;;;;;;;;;;;;;;28.97;20.97;101035.13;5066964;28;1155;-40
2023/03/20 11:50:46;;;;;;;;;;;;;;;27.60;22.78;101031.28;5066413;28;1055;-40
2023/03/20 11:53:30;;;;;;;;;;;;;;;28.62;21.54;101032.97;5062386;28;1135;-42
2023/03/20 11:56:15;;;;;;;;;;;;;;;27.42;23.01;101031.56;5071801;28;1095;-40
2023/03/20 11:58:52;;;;;;;;;;;;;;;27.21;23.52;101026.78;5081269;28;1320;-39
2023/03/20 12:01:18;;;;;;;;;;;;;;;29.20;21.00;101026.84;5089386;28;1102;-41
2023/03/20 12:03:45;;;;;;;;;;;;;;;29.56;20.76;101029.75;5061454;28;1230;-39
2023/03/20 12:06:15;;;;;;;;;;;;;;;30.05;20.09;101022.69;5079465;28;1901;-41
2023/03/20 12:08:41;;;;;;;;;;;;;;;28.85;21.29;101015.75;5079198;28;1118;-41
2023/03/20 12:11:12;;;;;;;;;;;;;;;27.84;23.00;101010.50;5079501;28;1107;-40
2023/03/20 12:13:38;;;;;;;;;;;;;;;29.37;21.00;101014.94;5061401;28;1107;-41
2023/03/20 12:16:05;;;;;;;;;;;;;;;29.91;20.46;101008.16;5079531;28;1107;-37
2023/03/20 12:18:30;;;;;;;;;;;;;;;29.13;21.02;100998.03;5061223;28;1051;-40
2023/03/20 12:21:05;;;;;;;;;;;;;;;27.82;23.12;100999.03;5061537;28;1268;-38
2023/03/20 12:23:31;;;;;;;;;;;;;;;29.27;21.33;101001.69;5066919;28;1103;-42
2023/03/20 12:26:02;;;;;;;;;;;;;;;29.21;21.48;101000.63;5091738;28;1973;-40
2023/03/20 12:28:48;;;;;;;;;;;;;;;27.36;23.32;100999.88;5079057;28;1435;-41
2023/03/20 12:31:44;;;;;;;;;;;;;;;27.50;23.44;100998.22;5077997;28;1373;-40
2023/03/20 12:34:26;;;;;;;;;;;;;;;27.47;23.39;100990.50;5056229;28;1236;-38
2023/03/20 12:36:53;;;;;;;;;;;;;;;27.35;23.32;100988.22;5079191;28;1083;-38
2023/03/20 12:39:20;;;;;;;;;;;;;;;27.31;23.14;100989.56;5045247;28;1079;-38
2023/03/20 12:42:05;;;;;;;;;;;;;;;28.59;22.42;100984.63;5068384;28;1106;-38
2023/03/20 12:44:35;;;;;;;;;;;;;;;27.76;22.73;100988.94;5079470;28;1050;-38
2023/03/20 12:47:13;;;;;;;;;;;;;;;27.00;23.70;100985.84;5060880;28;1914;-36
2023/03/20 12:49:38;;;;;;;;;;;;;;;28.19;22.85;100980.28;5047898;28;1083;-39
2023/03/20 12:52:22;;;;;;;;;;;;;;;28.82;22.15;100976.38;5078843;28;1211;-39
2023/03/20 12:54:54;;;;;;;;;;;;;;;28.16;22.34;100977.94;5078192;28;1158;-36
2023/03/20 12:57:21;;;;;;;;;;;;;;;27.14;23.59;100968.06;5077880;28;1023;-40
2023/03/20 12:59:46;;;;;;;;;;;;;;;27.61;23.34;100978.06;5078523;28;1205;-37
2023/03/20 13:02:14;;;;;;;;;;;;;;;28.63;22.41;100968.84;5078730;28;1043;-40